createdAt,value
2018-12-20T00:00:43.488Z,98060.08
2018-12-20T00:03:12.176Z,98051.36
2018-12-20T00:05:40.800Z,98056.55
2018-12-20T00:08:09.412Z,98060.54
2018-12-20T00:10:38.214Z,98064.20
2018-12-20T00:13:07.447Z,98062.59
2018-12-20T00:15:35.941Z,98064.92
2018-12-20T00:18:04.543Z,98055.42
2018-12-20T00:20:33.216Z,98062.86
2018-12-20T00:23:01.882Z,98063.38
2018-12-20T00:25:30.637Z,98057.80
2018-12-20T00:27:59.258Z,98057.75
2018-12-20T00:30:27.887Z,98059.51
2018-12-20T00:32:56.533Z,98051.41
2018-12-20T00:35:25.170Z,98046.47
2018-12-20T00:37:53.773Z,98038.34
2018-12-20T00:40:22.284Z,98043.06
2018-12-20T00:42:50.833Z,98038.77
2018-12-20T00:45:19.453Z,98042.27
2018-12-20T00:47:48.058Z,98036.80
2018-12-20T00:50:16.726Z,98041.30
2018-12-20T00:52:45.435Z,98044.55
2018-12-20T00:55:14.180Z,98052.86
2018-12-20T00:57:42.798Z,98044.34
2018-12-20T01:00:12.009Z,98043.38
2018-12-20T01:02:40.656Z,98052.97
2018-12-20T01:05:09.163Z,98060.56
2018-12-20T01:07:37.670Z,98063.17
2018-12-20T01:10:07.168Z,98068.86
2018-12-20T01:12:36.045Z,98067.46
2018-12-20T01:15:05.714Z,98070.70
2018-12-20T01:17:39.767Z,98068.64
2018-12-20T01:20:10.867Z,98078.84
2018-12-20T01:22:39.497Z,98074.71
2018-12-20T01:25:08.126Z,98068.86
2018-12-20T01:27:36.707Z,98073.08
2018-12-20T01:30:07.251Z,98074.42
2018-12-20T01:32:35.825Z,98070.50
2018-12-20T01:35:04.580Z,98073.66
2018-12-20T01:37:33.214Z,98073.54
2018-12-20T01:40:01.686Z,98074.49
2018-12-20T01:42:30.181Z,98083.34
2018-12-20T01:44:58.790Z,98096.78
2018-12-20T01:47:27.634Z,98096.07
2018-12-20T01:49:56.654Z,98101.60
2018-12-20T01:52:25.360Z,98089.42
2018-12-20T01:54:54.618Z,98093.13
2018-12-20T01:57:23.927Z,98096.67
2018-12-20T01:59:53.346Z,98091.64
2018-12-20T02:02:22.234Z,98097.42
2018-12-20T02:04:50.971Z,98095.94
2018-12-20T02:07:19.546Z,98088.67
2018-12-20T02:09:48.448Z,98090.84
2018-12-20T02:12:16.983Z,98087.64
2018-12-20T02:14:45.611Z,98088.14
2018-12-20T02:17:14.263Z,98090.84
2018-12-20T02:19:42.819Z,98089.64
2018-12-20T02:22:11.441Z,98086.17
2018-12-20T02:24:39.995Z,98080.92
2018-12-20T02:27:08.716Z,98080.33
2018-12-20T02:29:38.107Z,98088.53
2018-12-20T02:32:06.861Z,98090.28
2018-12-20T02:34:35.425Z,98089.17
2018-12-20T02:37:04.028Z,98092.14
2018-12-20T02:39:32.618Z,98086.74
2018-12-20T02:42:01.131Z,98090.49
2018-12-20T02:44:29.745Z,98090.58
2018-12-20T02:46:58.302Z,98096.73
2018-12-20T02:49:26.780Z,98092.38
2018-12-20T02:51:55.250Z,98094.42
2018-12-20T02:54:23.890Z,98098.02
2018-12-20T02:56:52.626Z,98095.23
2018-12-20T02:59:21.152Z,98090.67
2018-12-20T03:01:49.813Z,98091.94
2018-12-20T03:04:18.327Z,98103.01
2018-12-20T03:06:46.859Z,98104.53
2018-12-20T03:09:15.536Z,98096.14
2018-12-20T03:11:44.089Z,98099.31
2018-12-20T03:14:12.680Z,98099.44
2018-12-20T03:16:41.264Z,98093.22
2018-12-20T03:19:10.473Z,98091.38
2018-12-20T03:21:39.755Z,98094.13
2018-12-20T03:24:08.312Z,98092.78
2018-12-20T03:26:37.159Z,98093.62
2018-12-20T03:29:06.077Z,98095.94
2018-12-20T03:31:34.914Z,98096.67
2018-12-20T03:34:03.532Z,98093.13
2018-12-20T03:36:32.018Z,98092.28
2018-12-20T03:39:00.489Z,98092.15
2018-12-20T03:41:29.280Z,98092.15
2018-12-20T03:43:57.826Z,98084.53
2018-12-20T03:46:26.391Z,98075.84
2018-12-20T03:48:55.218Z,98081.23
2018-12-20T03:51:24.644Z,98084.53
2018-12-20T03:53:54.174Z,98083.34
2018-12-20T03:56:23.005Z,98084.00
2018-12-20T03:58:51.691Z,98079.87
2018-12-20T04:01:20.263Z,98073.67
2018-12-20T04:03:49.521Z,98081.05
2018-12-20T04:06:18.161Z,98072.83
2018-12-20T04:08:46.641Z,98079.98
2018-12-20T04:11:15.257Z,98080.37
2018-12-20T04:13:44.139Z,98084.03
2018-12-20T04:16:12.984Z,98091.02
2018-12-20T04:18:41.492Z,98087.23
2018-12-20T04:21:10.447Z,98095.32
2018-12-20T04:23:39.107Z,98096.95
2018-12-20T04:26:07.821Z,98083.13
2018-12-20T04:28:36.395Z,98090.13
2018-12-20T04:31:05.566Z,98092.40
2018-12-20T04:33:34.154Z,98087.73
2018-12-20T04:36:02.732Z,98086.92
2018-12-20T04:38:31.441Z,98084.50
2018-12-20T04:41:00.089Z,98077.19
2018-12-20T04:43:29.270Z,98072.89
2018-12-20T04:45:57.974Z,98085.60
2018-12-20T04:48:26.665Z,98089.70
2018-12-20T04:50:55.330Z,98098.06
2018-12-20T04:53:24.805Z,98107.54
2018-12-20T04:55:53.506Z,98100.55
2018-12-20T04:58:22.769Z,98104.09
2018-12-20T05:00:51.497Z,98107.77
2018-12-20T05:03:20.002Z,98102.61
2018-12-20T05:05:48.852Z,98103.05
2018-12-20T05:08:17.483Z,98098.39
2018-12-20T05:10:46.136Z,98104.59
2018-12-20T05:13:15.030Z,98106.80
2018-12-20T05:15:43.795Z,98114.41
2018-12-20T05:18:12.447Z,98116.41
2018-12-20T05:20:41.216Z,98115.52
2018-12-20T05:23:09.933Z,98125.09
2018-12-20T05:25:38.619Z,98117.00
2018-12-20T05:28:07.368Z,98116.50
2018-12-20T05:30:35.963Z,98109.77
2018-12-20T05:33:04.506Z,98121.64
2018-12-20T05:35:33.100Z,98112.80
2018-12-20T05:38:01.697Z,98118.47
2018-12-20T05:40:30.287Z,98126.81
2018-12-20T05:42:58.836Z,98127.29
2018-12-20T05:45:27.837Z,98130.78
2018-12-20T05:47:56.675Z,98127.64
2018-12-20T05:50:25.480Z,98130.06
2018-12-20T05:52:54.400Z,98126.06
2018-12-20T05:55:25.419Z,98140.29
2018-12-20T05:57:57.055Z,98136.79
2018-12-20T06:00:26.871Z,98141.39
2018-12-20T06:02:56.922Z,98139.48
2018-12-20T06:05:25.897Z,98145.34
2018-12-20T06:07:54.718Z,98145.96
2018-12-20T06:10:24.039Z,98148.38
2018-12-20T06:12:52.978Z,98143.98
2018-12-20T06:15:21.833Z,98143.94
2018-12-20T06:17:50.926Z,98139.73
2018-12-20T06:20:19.745Z,98129.02
2018-12-20T06:22:48.605Z,98137.36
2018-12-20T06:25:17.235Z,98136.27
2018-12-20T06:27:46.376Z,98132.97
2018-12-20T06:30:15.339Z,98130.86
2018-12-20T06:32:43.989Z,98138.16
2018-12-20T06:35:12.861Z,98135.81
2018-12-20T06:37:41.580Z,98140.83
2018-12-20T06:40:10.215Z,98144.03
2018-12-20T06:42:38.881Z,98147.17
2018-12-20T06:45:07.551Z,98148.94
2018-12-20T06:47:36.386Z,98162.34
2018-12-20T06:50:05.301Z,98157.19
2018-12-20T06:52:34.187Z,98163.34
2018-12-20T06:55:03.229Z,98155.60
2018-12-20T06:57:31.826Z,98155.73
2018-12-20T07:00:00.427Z,98159.53
2018-12-20T07:02:28.879Z,98162.44
2018-12-20T07:04:57.478Z,98166.14
2018-12-20T07:07:26.385Z,98161.34
2018-12-20T07:09:54.923Z,98160.83
2018-12-20T07:12:23.490Z,98165.54
2018-12-20T07:14:51.986Z,98171.39
2018-12-20T07:17:20.479Z,98175.69
2018-12-20T07:19:48.971Z,98180.41
2018-12-20T07:22:18.087Z,98177.75
2018-12-20T07:24:46.681Z,98178.45
2018-12-20T07:27:15.150Z,98176.11
2018-12-20T07:29:43.714Z,98180.41
2018-12-20T07:32:12.594Z,98181.91
2018-12-20T07:34:47.741Z,98182.41
2018-12-20T07:37:11.702Z,98177.00
2018-12-20T07:39:40.217Z,98183.66
2018-12-20T07:42:08.798Z,98182.92
2018-12-20T07:44:37.660Z,98184.12
2018-12-20T07:47:06.394Z,98181.06
2018-12-20T07:49:34.991Z,98183.75
2018-12-20T07:52:04.004Z,98182.45
2018-12-20T07:54:32.720Z,98190.06
2018-12-20T07:57:01.667Z,98181.16
2018-12-20T07:59:30.172Z,98192.24
2018-12-20T08:01:58.645Z,98182.76
2018-12-20T08:04:27.151Z,98183.26
2018-12-20T08:06:56.565Z,98184.00
2018-12-20T08:09:25.040Z,98188.24
2018-12-20T08:11:53.550Z,98186.87
2018-12-20T08:14:22.097Z,98192.66
2018-12-20T08:16:50.759Z,98201.77
2018-12-20T08:19:19.285Z,98197.13
2018-12-20T08:21:47.769Z,98204.94
2018-12-20T08:24:16.894Z,98208.84
2018-12-20T08:26:45.418Z,98204.22
2018-12-20T08:29:14.817Z,98211.34
2018-12-20T08:31:43.419Z,98211.64
2018-12-20T08:34:11.987Z,98205.67
2018-12-20T08:36:40.489Z,98216.08
2018-12-20T08:39:09.282Z,98218.75
2018-12-20T08:41:37.769Z,98216.95
2018-12-20T08:44:06.294Z,98223.70
2018-12-20T08:46:34.950Z,98220.66
2018-12-20T08:49:03.537Z,98227.55
2018-12-20T08:51:32.044Z,98232.30
2018-12-20T08:54:00.539Z,98231.50
2018-12-20T08:56:29.059Z,98240.58
2018-12-20T08:58:57.555Z,98239.86
2018-12-20T09:01:26.245Z,98244.66
2018-12-20T09:03:54.941Z,98245.42
2018-12-20T09:06:24.550Z,98247.23
2018-12-20T09:08:55.011Z,98241.83
2018-12-20T09:11:23.553Z,98248.44
2018-12-20T09:13:52.719Z,98239.12
2018-12-20T09:16:21.241Z,98242.09
2018-12-20T09:18:49.871Z,98241.96
2018-12-20T09:21:18.467Z,98248.72
2018-12-20T09:23:47.083Z,98252.91
2018-12-20T09:26:15.539Z,98252.05
2018-12-20T09:28:44.066Z,98254.98
2018-12-20T09:31:13.328Z,98255.73
2018-12-20T09:33:41.853Z,98252.41
2018-12-20T09:36:10.447Z,98265.33
2018-12-20T09:38:38.994Z,98261.66
2018-12-20T09:41:07.877Z,98258.66
2018-12-20T09:43:36.373Z,98260.16
2018-12-20T09:46:04.907Z,98259.16
2018-12-20T09:48:33.599Z,98259.92
2018-12-20T09:51:02.173Z,98259.27
2018-12-20T09:53:30.794Z,98269.09
2018-12-20T09:55:59.418Z,98261.88
2018-12-20T09:58:27.990Z,98260.63
2018-12-20T10:00:57.112Z,98259.12
2018-12-20T10:03:25.619Z,98262.13
2018-12-20T10:05:54.299Z,98253.44
2018-12-20T10:08:22.795Z,98257.80
2018-12-20T10:10:51.488Z,98257.19
2018-12-20T10:13:20.159Z,98254.67
2018-12-20T10:15:48.646Z,98253.25
2018-12-20T10:18:17.171Z,98256.69
2018-12-20T10:20:45.738Z,98255.47
2018-12-20T10:23:14.516Z,98257.41
2018-12-20T10:25:43.026Z,98249.69
2018-12-20T10:28:11.590Z,98249.77
2018-12-20T10:30:40.109Z,98245.42
2018-12-20T10:33:08.702Z,98245.48
2018-12-20T10:35:37.163Z,98239.53
2018-12-20T10:38:05.636Z,98237.88
2018-12-20T10:40:35.162Z,98241.05
2018-12-20T10:43:03.691Z,98239.78
2018-12-20T10:45:32.787Z,98235.99
2018-12-20T10:48:01.662Z,98228.00
2018-12-20T10:50:30.257Z,98239.36
2018-12-20T10:52:59.722Z,98238.53
2018-12-20T10:55:28.775Z,98242.22
2018-12-20T10:57:57.270Z,98239.67
2018-12-20T11:00:25.737Z,98232.11
2018-12-20T11:03:00.699Z,98229.41
2018-12-20T11:05:34.626Z,98238.34
2018-12-20T11:08:08.513Z,98228.69
2018-12-20T11:10:37.700Z,98230.50
2018-12-20T11:13:13.230Z,98222.85
2018-12-20T11:15:41.831Z,98229.31
2018-12-20T11:18:10.406Z,98229.14
2018-12-20T11:20:39.393Z,98220.45
2018-12-20T11:23:08.158Z,98229.26
2018-12-20T11:25:36.990Z,98220.38
2018-12-20T11:28:08.215Z,98217.68
2018-12-20T11:30:37.829Z,98218.94
2018-12-20T11:33:07.863Z,98213.85
2018-12-20T11:35:36.353Z,98215.45
2018-12-20T11:38:04.847Z,98212.41
2018-12-20T11:40:33.559Z,98213.38
2018-12-20T11:43:02.405Z,98209.77
2018-12-20T11:45:30.851Z,98218.15
2018-12-20T11:48:00.574Z,98212.73
2018-12-20T11:50:31.132Z,98214.61
2018-12-20T11:53:00.833Z,98209.19
2018-12-20T11:55:29.442Z,98199.50
2018-12-20T11:57:57.901Z,98195.75
2018-12-20T12:00:26.370Z,98197.69
2018-12-20T12:02:55.053Z,98193.06
2018-12-20T12:05:23.522Z,98195.63
2018-12-20T12:07:52.042Z,98192.98
2018-12-20T12:10:20.583Z,98192.83
2018-12-20T12:12:49.055Z,98184.73
2018-12-20T12:15:17.560Z,98192.53
2018-12-20T12:17:54.031Z,98196.70
2018-12-20T12:20:17.042Z,98193.70
2018-12-20T12:22:45.494Z,98209.73
2018-12-20T12:25:14.097Z,98201.06
2018-12-20T12:27:42.667Z,98198.16
2018-12-20T12:30:11.311Z,98196.70
2018-12-20T12:32:40.003Z,98206.66
2018-12-20T12:35:08.520Z,98207.69
2018-12-20T12:37:36.994Z,98208.14
2018-12-20T12:40:06.529Z,98207.11
2018-12-20T12:42:35.042Z,98197.48
2018-12-20T12:45:03.723Z,98196.45
2018-12-20T12:48:04.120Z,98198.88
2018-12-20T12:50:32.837Z,98195.80
2018-12-20T12:53:01.391Z,98201.30
2018-12-20T12:55:29.964Z,98194.37
2018-12-20T12:58:04.655Z,98191.65
2018-12-20T13:00:29.166Z,98192.92
2018-12-20T13:02:57.655Z,98191.98
2018-12-20T13:05:26.116Z,98195.89
2018-12-20T13:07:54.841Z,98190.95
2018-12-20T13:10:23.857Z,98190.83
2018-12-20T13:12:52.432Z,98191.91
2018-12-20T13:15:20.938Z,98197.73
2018-12-20T13:17:49.402Z,98193.90
2018-12-20T13:20:17.915Z,98199.17
2018-12-20T13:22:46.502Z,98194.37
2018-12-20T13:25:15.095Z,98208.11
2018-12-20T13:27:43.704Z,98203.41
2018-12-20T13:30:13.211Z,98203.78
2018-12-20T13:32:41.687Z,98196.47
2018-12-20T13:35:10.307Z,98198.45
2018-12-20T13:37:39.757Z,98194.53
2018-12-20T13:40:09.048Z,98187.84
2018-12-20T13:42:37.530Z,98193.66
2018-12-20T13:45:06.505Z,98193.02
2018-12-20T13:47:35.170Z,98202.37
2018-12-20T13:50:03.818Z,98203.48
2018-12-20T13:52:33.889Z,98204.91
2018-12-20T13:55:02.483Z,98205.64
2018-12-20T13:57:30.965Z,98201.55
2018-12-20T13:59:59.510Z,98208.73
2018-12-20T14:02:28.095Z,98210.81
2018-12-20T14:04:56.783Z,98212.25
2018-12-20T14:07:25.273Z,98210.58
2018-12-20T14:09:54.358Z,98218.64
2018-12-20T14:12:22.817Z,98224.37
2018-12-20T14:14:51.270Z,98227.08
2018-12-20T14:17:19.755Z,98234.42
2018-12-20T14:19:48.238Z,98233.80
2018-12-20T14:22:16.842Z,98233.45
2018-12-20T14:24:45.297Z,98238.60
2018-12-20T14:27:13.881Z,98244.89
2018-12-20T14:29:42.385Z,98237.03
2018-12-20T14:32:11.018Z,98238.88
2018-12-20T14:34:39.549Z,98234.90
2018-12-20T14:37:08.014Z,98236.36
2018-12-20T14:39:37.261Z,98229.59
2018-12-20T14:42:05.741Z,98228.64
2018-12-20T14:44:34.612Z,98233.48
2018-12-20T14:47:03.097Z,98232.37
2018-12-20T14:49:31.615Z,98232.13
2018-12-20T14:52:00.108Z,98230.41
2018-12-20T14:54:28.662Z,98233.55
2018-12-20T14:56:57.182Z,98234.61
2018-12-20T14:59:27.577Z,98234.39
2018-12-20T15:01:57.086Z,98234.22
2018-12-20T15:04:25.880Z,98239.96
2018-12-20T15:06:54.440Z,98238.85
2018-12-20T15:09:23.073Z,98239.70
2018-12-20T15:11:51.592Z,98245.91
2018-12-20T15:14:20.193Z,98249.69
2018-12-20T15:16:48.784Z,98260.50
2018-12-20T15:19:17.482Z,98251.53
2018-12-20T15:21:46.037Z,98255.72
2018-12-20T15:24:15.171Z,98263.46
2018-12-20T15:26:43.666Z,98266.66
2018-12-20T15:29:12.146Z,98264.38
2018-12-20T15:31:40.690Z,98270.66
2018-12-20T15:34:09.155Z,98272.75
2018-12-20T15:36:37.706Z,98277.00
2018-12-20T15:39:07.881Z,98276.69
2018-12-20T15:41:37.039Z,98282.48
2018-12-20T15:44:05.508Z,98282.56
2018-12-20T15:46:34.121Z,98279.86
2018-12-20T15:49:03.994Z,98278.42
2018-12-20T15:51:33.827Z,98280.52
2018-12-20T15:54:02.395Z,98282.38
2018-12-20T15:56:30.874Z,98273.74
2018-12-20T15:58:59.438Z,98277.39
2018-12-20T16:01:27.959Z,98276.70
2018-12-20T16:03:56.521Z,98276.94
2018-12-20T16:06:25.026Z,98281.28
2018-12-20T16:08:53.594Z,98275.00
2018-12-20T16:11:22.106Z,98276.39
2018-12-20T16:13:50.534Z,98274.80
2018-12-20T16:16:19.747Z,98279.03
2018-12-20T16:18:48.261Z,98280.14
2018-12-20T16:21:16.758Z,98286.11
2018-12-20T16:23:45.207Z,98287.19
2018-12-20T16:26:13.681Z,98295.93
2018-12-20T16:28:42.237Z,98290.02
2018-12-20T16:31:11.349Z,98292.82
2018-12-20T16:33:39.802Z,98294.20
2018-12-20T16:36:08.456Z,98296.08
2018-12-20T16:38:37.009Z,98295.06
2018-12-20T16:41:05.579Z,98284.91
2018-12-20T16:43:34.139Z,98287.77
2018-12-20T16:46:02.609Z,98284.33
2018-12-20T16:48:31.215Z,98288.76
2018-12-20T16:50:59.689Z,98293.44
2018-12-20T16:53:28.202Z,98291.84
2018-12-20T16:55:56.774Z,98288.79
2018-12-20T16:58:26.329Z,98287.28
2018-12-20T17:00:54.816Z,98285.72
2018-12-20T17:03:23.367Z,98290.48
2018-12-20T17:05:51.843Z,98291.47
2018-12-20T17:08:20.340Z,98289.83
2018-12-20T17:10:48.833Z,98287.36
2018-12-20T17:13:17.306Z,98289.34
2018-12-20T17:15:45.830Z,98283.48
2018-12-20T17:18:14.325Z,98284.81
2018-12-20T17:20:42.830Z,98296.47
2018-12-20T17:23:11.310Z,98288.08
2018-12-20T17:25:39.808Z,98298.56
2018-12-20T17:28:09.006Z,98296.76
2018-12-20T17:30:37.550Z,98298.63
2018-12-20T17:33:06.017Z,98292.78
2018-12-20T17:35:34.514Z,98299.55
2018-12-20T17:38:02.999Z,98296.43
2018-12-20T17:40:31.483Z,98292.13
2018-12-20T17:43:00.178Z,98295.50
2018-12-20T17:45:29.041Z,98298.14
2018-12-20T17:47:57.496Z,98297.66
2018-12-20T17:50:26.063Z,98298.82
2018-12-20T17:52:54.525Z,98294.91
2018-12-20T17:55:23.039Z,98304.88
2018-12-20T17:57:51.519Z,98305.99
2018-12-20T18:00:20.047Z,98304.42
2018-12-20T18:02:48.498Z,98314.98
2018-12-20T18:05:16.986Z,98314.12
2018-12-20T18:07:45.457Z,98307.68
2018-12-20T18:10:14.178Z,98309.96
2018-12-20T18:12:42.725Z,98316.21
2018-12-20T18:15:12.390Z,98318.08
2018-12-20T18:17:40.925Z,98316.48
2018-12-20T18:20:11.376Z,98318.58
2018-12-20T18:22:40.714Z,98321.13
2018-12-20T18:25:09.225Z,98319.44
2018-12-20T18:27:37.753Z,98325.22
2018-12-20T18:30:09.643Z,98321.28
2018-12-20T18:32:38.209Z,98315.81
2018-12-20T18:35:07.351Z,98323.30
2018-12-20T18:37:35.874Z,98318.36
2018-12-20T18:40:05.202Z,98319.75
2018-12-20T18:42:33.655Z,98326.21
2018-12-20T18:45:02.187Z,98326.03
2018-12-20T18:47:30.742Z,98327.59
2018-12-20T18:49:59.234Z,98322.64
2018-12-20T18:52:28.628Z,98333.02
2018-12-20T18:54:57.277Z,98325.59
2018-12-20T18:57:25.799Z,98331.84
2018-12-20T18:59:54.394Z,98331.72
2018-12-20T19:02:23.986Z,98332.12
2018-12-20T19:04:52.478Z,98340.71
2018-12-20T19:07:21.407Z,98346.37
2018-12-20T19:09:52.225Z,98344.78
2018-12-20T19:12:25.331Z,98346.02
2018-12-20T19:14:54.872Z,98342.82
2018-12-20T19:17:23.434Z,98346.63
2018-12-20T19:19:56.563Z,98347.36
2018-12-20T19:22:23.413Z,98345.51
2018-12-20T19:24:52.086Z,98347.36
2018-12-20T19:27:20.566Z,98346.98
2018-12-20T19:29:49.779Z,98341.84
2018-12-20T19:32:18.360Z,98344.77
2018-12-20T19:34:47.159Z,98346.55
2018-12-20T19:37:15.676Z,98357.95
2018-12-20T19:39:45.404Z,98355.11
2018-12-20T19:42:16.415Z,98353.24
2018-12-20T19:44:44.902Z,98358.50
2018-12-20T19:47:13.453Z,98357.86
2018-12-20T19:49:42.772Z,98356.72
2018-12-20T19:52:11.243Z,98361.52
2018-12-20T19:54:47.791Z,98363.48
2018-12-20T19:57:10.330Z,98373.02
2018-12-20T19:59:39.024Z,98370.26
2018-12-20T20:02:07.653Z,98366.88
2018-12-20T20:04:36.139Z,98367.03
2018-12-20T20:07:04.798Z,98368.59
2018-12-20T20:09:33.287Z,98375.25
2018-12-20T20:12:01.801Z,98383.14
2018-12-20T20:14:30.302Z,98376.66
2018-12-20T20:16:58.982Z,98376.17
2018-12-20T20:19:27.506Z,98377.14
2018-12-20T20:21:55.966Z,98380.58
2018-12-20T20:24:24.496Z,98382.08
2018-12-20T20:26:53.162Z,98379.92
2018-12-20T20:29:22.120Z,98380.10
2018-12-20T20:31:50.971Z,98379.24
2018-12-20T20:34:19.902Z,98379.85
2018-12-20T20:36:48.691Z,98382.20
2018-12-20T20:39:17.202Z,98379.85
2018-12-20T20:41:48.442Z,98380.47
2018-12-20T20:44:16.978Z,98372.89
2018-12-20T20:46:45.477Z,98370.81
2018-12-20T20:49:14.804Z,98379.00
2018-12-20T20:51:44.365Z,98373.20
2018-12-20T20:54:13.524Z,98380.06
2018-12-20T20:56:42.318Z,98376.55
2018-12-20T20:59:11.086Z,98374.69
2018-12-20T21:01:39.580Z,98376.27
2018-12-20T21:04:08.942Z,98383.86
2018-12-20T21:06:37.579Z,98380.71
2018-12-20T21:09:08.164Z,98385.09
2018-12-20T21:11:36.625Z,98378.38
2018-12-20T21:14:05.483Z,98377.77
2018-12-20T21:16:33.994Z,98382.69
2018-12-20T21:19:03.534Z,98388.19
2018-12-20T21:21:32.608Z,98381.95
2018-12-20T21:24:01.608Z,98385.83
2018-12-20T21:26:30.401Z,98387.38
2018-12-20T21:28:58.881Z,98382.31
2018-12-20T21:31:28.105Z,98394.25
2018-12-20T21:33:56.702Z,98392.36
2018-12-20T21:36:25.530Z,98396.61
2018-12-20T21:38:54.653Z,98402.39
2018-12-20T21:41:23.212Z,98404.86
2018-12-20T21:43:52.386Z,98402.03
2018-12-20T21:46:21.485Z,98406.09
2018-12-20T21:48:50.034Z,98406.06
2018-12-20T21:51:19.254Z,98402.64
2018-12-20T21:53:54.854Z,98396.23
2018-12-20T21:56:18.998Z,98397.95
2018-12-20T21:58:48.357Z,98401.29
2018-12-20T22:01:16.957Z,98399.80
2018-12-20T22:03:45.527Z,98395.88
2018-12-20T22:06:14.274Z,98388.22
2018-12-20T22:08:42.825Z,98398.75
2018-12-20T22:11:11.692Z,98398.88
2018-12-20T22:13:40.854Z,98395.02
2018-12-20T22:16:09.647Z,98402.64
2018-12-20T22:18:38.669Z,98394.02
2018-12-20T22:21:07.339Z,98394.44
2018-12-20T22:23:35.852Z,98387.75
2018-12-20T22:26:04.362Z,98390.81
2018-12-20T22:28:32.891Z,98386.45
2018-12-20T22:31:01.382Z,98385.52
2018-12-20T22:33:30.183Z,98376.28
2018-12-20T22:35:58.802Z,98383.19
2018-12-20T22:38:27.277Z,98387.75
2018-12-20T22:40:55.865Z,98383.91
2018-12-20T22:43:24.673Z,98389.21
2018-12-20T22:45:53.134Z,98390.57
2018-12-20T22:48:21.629Z,98385.90
2018-12-20T22:50:55.898Z,98379.30
2018-12-20T22:53:20.675Z,98384.92
2018-12-20T22:55:49.397Z,98380.73
2018-12-20T22:58:18.313Z,98375.02
2018-12-20T23:00:54.112Z,98379.19
2018-12-20T23:03:23.001Z,98380.97
2018-12-20T23:05:51.570Z,98376.66
2018-12-20T23:08:20.544Z,98384.30
2018-12-20T23:10:49.001Z,98383.93
2018-12-20T23:13:17.929Z,98385.05
2018-12-20T23:15:46.414Z,98384.34
2018-12-20T23:18:15.230Z,98377.28
2018-12-20T23:20:43.702Z,98376.28
2018-12-20T23:23:12.202Z,98366.68
2018-12-20T23:25:40.802Z,98367.78
2018-12-20T23:28:09.705Z,98373.95
2018-12-20T23:30:38.174Z,98380.56
2018-12-20T23:33:06.662Z,98377.94
2018-12-20T23:35:35.110Z,98371.68
2018-12-20T23:38:03.629Z,98366.72
2018-12-20T23:40:32.113Z,98367.08
2018-12-20T23:43:00.622Z,98359.69
2018-12-20T23:45:29.076Z,98353.25
2018-12-20T23:47:57.544Z,98362.90
2018-12-20T23:50:26.029Z,98362.61
2018-12-20T23:52:54.526Z,98362.42
2018-12-20T23:55:23.770Z,98354.19
2018-12-20T23:57:52.269Z,98360.36
